createdAt,value
2023-02-25T00:01:33.492Z,3.20
2023-02-25T00:04:03.360Z,1.00
2023-02-25T00:06:33.085Z,1.00
2023-02-25T00:09:02.857Z,1.00
2023-02-25T00:11:32.749Z,1.00
2023-02-25T00:14:05.060Z,1.00
2023-02-25T00:16:35.201Z,1.00
2023-02-25T00:19:05.048Z,1.00
2023-02-25T00:21:34.810Z,1.00
2023-02-25T00:24:16.058Z,1.00
2023-02-25T00:26:46.866Z,1.00
2023-02-25T00:29:19.244Z,1.00
2023-02-25T00:31:49.314Z,1.00
2023-02-25T00:34:19.828Z,1.00
2023-02-25T00:36:50.158Z,1.00
2023-02-25T00:39:20.011Z,1.00
2023-02-25T00:41:49.763Z,1.00
2023-02-25T00:44:22.036Z,1.00
2023-02-25T00:46:51.795Z,1.00
2023-02-25T00:49:32.090Z,1.00
2023-02-25T00:52:02.703Z,1.00
2023-02-25T00:54:32.749Z,1.00
2023-02-25T00:57:02.572Z,1.00
2023-02-25T00:59:35.694Z,1.00
2023-02-25T01:02:05.674Z,1.00
2023-02-25T01:04:35.613Z,1.00
2023-02-25T01:07:05.537Z,1.00
2023-02-25T01:09:35.250Z,1.00
2023-02-25T01:12:05.350Z,1.00
2023-02-25T01:14:38.170Z,1.00
2023-02-25T01:17:09.808Z,1.00
2023-02-25T01:19:39.617Z,1.00
2023-02-25T01:22:09.502Z,1.00
2023-02-25T01:24:39.295Z,1.00
2023-02-25T01:27:09.188Z,1.00
2023-02-25T01:29:43.418Z,1.00
2023-02-25T01:32:16.201Z,1.00
2023-02-25T01:34:46.117Z,1.00
2023-02-25T01:37:15.913Z,1.00
2023-02-25T01:39:45.641Z,1.00
2023-02-25T01:42:18.966Z,1.00
2023-02-25T01:45:30.646Z,1.00
2023-02-25T01:48:10.065Z,1.00
2023-02-25T01:50:45.928Z,1.00
2023-02-25T01:53:17.096Z,1.00
2023-02-25T01:55:47.163Z,1.00
2023-02-25T01:58:17.150Z,1.00
2023-02-25T02:00:47.165Z,1.00
2023-02-25T02:03:19.503Z,1.00
2023-02-25T02:05:58.675Z,1.00
2023-02-25T02:08:29.022Z,1.00
2023-02-25T02:10:59.502Z,1.00
2023-02-25T02:13:29.776Z,1.00
2023-02-25T02:16:13.212Z,1.00
2023-02-25T02:18:50.582Z,1.00
2023-02-25T02:21:36.997Z,1.00
2023-02-25T02:24:33.554Z,1.00
2023-02-25T02:27:06.363Z,1.00
2023-02-25T02:30:05.157Z,1.00
2023-02-25T02:32:43.233Z,1.00
2023-02-25T02:35:20.817Z,1.00
2023-02-25T02:38:00.293Z,1.00
2023-02-25T02:40:41.265Z,1.00
2023-02-25T02:43:20.899Z,1.00
2023-02-25T02:45:57.876Z,1.00
2023-02-25T02:48:37.112Z,1.00
2023-02-25T02:51:11.419Z,1.00
2023-02-25T02:53:45.117Z,1.00
2023-02-25T02:56:18.257Z,1.00
2023-02-25T02:58:53.016Z,1.00
2023-02-25T03:01:28.243Z,1.00
2023-02-25T03:04:06.019Z,1.00
2023-02-25T03:06:39.490Z,1.00
2023-02-25T03:09:13.606Z,1.00
2023-02-25T03:11:43.858Z,1.00
2023-02-25T03:14:14.454Z,1.00
2023-02-25T03:16:48.784Z,1.00
2023-02-25T03:19:24.116Z,1.00
2023-02-25T03:22:00.937Z,1.00
2023-02-25T03:24:37.216Z,1.00
2023-02-25T03:27:25.729Z,1.00
2023-02-25T03:29:58.822Z,1.00
2023-02-25T03:32:31.291Z,1.00
2023-02-25T03:35:05.793Z,1.00
2023-02-25T03:37:36.274Z,1.00
2023-02-25T03:40:13.886Z,1.00
2023-02-25T03:42:48.691Z,1.00
2023-02-25T03:45:19.303Z,1.00
2023-02-25T03:47:49.264Z,1.00
2023-02-25T03:50:24.741Z,1.00
2023-02-25T03:52:54.576Z,1.00
2023-02-25T03:55:25.396Z,1.00
2023-02-25T03:57:55.357Z,1.00
2023-02-25T04:00:27.144Z,1.00
2023-02-25T04:02:57.041Z,1.00
2023-02-25T04:05:30.239Z,1.00
2023-02-25T04:08:01.028Z,1.00
2023-02-25T04:10:30.795Z,1.00
2023-02-25T04:13:00.510Z,1.00
2023-02-25T04:15:30.421Z,1.00
2023-02-25T04:18:00.174Z,1.00
2023-02-25T04:20:33.183Z,1.00
2023-02-25T04:23:03.150Z,1.00
2023-02-25T04:25:33.191Z,1.00
2023-02-25T04:28:02.978Z,1.00
2023-02-25T04:30:34.272Z,1.00
2023-02-25T04:33:04.714Z,1.00
2023-02-25T04:35:37.056Z,1.00
2023-02-25T04:38:09.047Z,1.00
2023-02-25T04:40:39.505Z,1.00
2023-02-25T04:43:09.912Z,1.00
2023-02-25T04:45:39.718Z,1.00
2023-02-25T04:48:09.742Z,1.00
2023-02-25T04:50:42.055Z,1.00
2023-02-25T04:53:11.855Z,1.00
2023-02-25T04:55:41.641Z,1.00
2023-02-25T04:58:11.442Z,1.00
2023-02-25T05:00:47.554Z,1.00
2023-02-25T05:03:17.540Z,1.00
2023-02-25T05:05:49.883Z,1.00
2023-02-25T05:08:19.591Z,1.00
2023-02-25T05:10:49.459Z,1.00
2023-02-25T05:13:19.247Z,1.00
2023-02-25T05:15:49.500Z,1.00
2023-02-25T05:18:19.456Z,1.00
2023-02-25T05:20:51.816Z,1.00
2023-02-25T05:23:21.699Z,1.00
2023-02-25T05:25:51.684Z,1.00
2023-02-25T05:28:21.426Z,1.00
2023-02-25T05:30:55.399Z,1.00
2023-02-25T05:33:27.054Z,1.00
2023-02-25T05:35:59.339Z,1.00
2023-02-25T05:38:29.114Z,1.00
2023-02-25T05:40:58.803Z,1.00
2023-02-25T05:43:28.555Z,1.00
2023-02-25T05:45:59.928Z,1.00
2023-02-25T05:48:30.015Z,1.00
2023-02-25T05:51:07.315Z,1.00
2023-02-25T05:53:37.569Z,1.00
2023-02-25T05:56:09.531Z,1.00
2023-02-25T05:58:39.567Z,1.00
2023-02-25T06:01:13.521Z,1.00
2023-02-25T06:03:43.943Z,1.00
2023-02-25T06:06:17.918Z,1.00
2023-02-25T06:08:49.418Z,1.00
2023-02-25T06:11:22.583Z,1.00
2023-02-25T06:13:53.330Z,1.00
2023-02-25T06:16:25.856Z,1.00
2023-02-25T06:18:56.469Z,1.00
2023-02-25T06:21:29.170Z,1.00
2023-02-25T06:23:58.962Z,1.00
2023-02-25T06:26:29.524Z,1.00
2023-02-25T06:29:00.122Z,1.00
2023-02-25T06:31:29.974Z,1.00
2023-02-25T06:33:59.772Z,1.00
2023-02-25T06:36:32.958Z,1.00
2023-02-25T06:39:02.726Z,1.00
2023-02-25T06:41:32.766Z,1.00
2023-02-25T06:44:02.664Z,1.00
2023-02-25T06:46:32.465Z,1.00
2023-02-25T06:49:02.254Z,1.00
2023-02-25T06:51:34.583Z,1.00
2023-02-25T06:54:06.323Z,1.00
2023-02-25T06:56:36.075Z,1.00
2023-02-25T06:59:05.787Z,1.00
2023-02-25T07:01:37.159Z,1.00
2023-02-25T07:04:07.500Z,1.00
2023-02-25T07:06:39.883Z,1.00
2023-02-25T07:09:09.616Z,1.00
2023-02-25T07:11:39.819Z,1.00
2023-02-25T07:14:09.648Z,1.00
2023-02-25T07:16:39.553Z,1.00
2023-02-25T07:19:09.315Z,1.00
2023-02-25T07:21:41.618Z,1.00
2023-02-25T07:24:12.118Z,1.00
2023-02-25T07:26:41.932Z,1.00
2023-02-25T07:29:13.766Z,1.00
2023-02-25T07:31:44.897Z,1.00
2023-02-25T07:34:14.770Z,1.00
2023-02-25T07:36:47.176Z,1.00
2023-02-25T07:39:17.042Z,1.00
2023-02-25T07:41:46.926Z,1.00
2023-02-25T07:44:16.748Z,1.00
2023-02-25T07:46:46.539Z,1.00
2023-02-25T07:49:16.366Z,1.00
2023-02-25T07:51:48.766Z,1.00
2023-02-25T07:54:21.196Z,1.00
2023-02-25T07:56:52.502Z,1.00
2023-02-25T07:59:23.220Z,1.00
2023-02-25T08:01:52.983Z,1.00
2023-02-25T08:04:22.773Z,1.00
2023-02-25T08:06:55.372Z,1.00
2023-02-25T08:09:25.112Z,1.00
2023-02-25T08:11:55.167Z,1.00
2023-02-25T08:14:24.947Z,1.00
2023-02-25T08:16:58.847Z,1.00
2023-02-25T08:19:28.615Z,1.00
2023-02-25T08:22:01.202Z,1.00
2023-02-25T08:24:30.969Z,1.00
2023-02-25T08:27:01.083Z,1.00
2023-02-25T08:29:31.255Z,1.00
2023-02-25T08:32:01.158Z,1.00
2023-02-25T08:34:30.980Z,1.00
2023-02-25T08:37:03.303Z,1.00
2023-02-25T08:39:35.965Z,1.00
2023-02-25T08:42:06.330Z,1.00
2023-02-25T08:44:36.172Z,1.00
2023-02-25T08:47:06.104Z,1.00
2023-02-25T08:49:35.907Z,1.00
2023-02-25T08:52:08.310Z,1.00
2023-02-25T08:54:38.013Z,1.00
2023-02-25T08:57:07.809Z,1.00
2023-02-25T08:59:38.462Z,1.00
2023-02-25T09:02:10.203Z,1.00
2023-02-25T09:04:39.987Z,1.00
2023-02-25T09:07:13.867Z,1.00
2023-02-25T09:09:43.574Z,1.00
2023-02-25T09:12:13.782Z,1.00
2023-02-25T09:14:43.560Z,1.00
2023-02-25T09:17:13.714Z,1.00
2023-02-25T09:19:43.436Z,1.00
2023-02-25T09:22:15.910Z,1.00
2023-02-25T09:24:45.658Z,1.00
2023-02-25T09:27:15.613Z,1.00
2023-02-25T09:29:45.374Z,1.00
2023-02-25T09:32:21.039Z,1.00
2023-02-25T09:34:52.791Z,1.00
2023-02-25T09:37:25.758Z,1.00
2023-02-25T09:39:55.773Z,1.00
2023-02-25T09:42:31.201Z,1.00
2023-02-25T09:45:04.505Z,1.00
2023-02-25T09:47:40.736Z,1.00
2023-02-25T09:50:18.357Z,1.00
2023-02-25T09:53:00.075Z,1.00
2023-02-25T09:55:35.779Z,1.00
2023-02-25T09:58:11.579Z,1.00
2023-02-25T10:00:47.731Z,1.00
2023-02-25T10:03:25.944Z,1.00
2023-02-25T10:06:03.113Z,1.00
2023-02-25T10:08:41.467Z,1.00
2023-02-25T10:11:14.634Z,1.00
2023-02-25T10:13:49.138Z,1.00
2023-02-25T10:16:29.564Z,1.00
2023-02-25T10:19:08.205Z,1.00
2023-02-25T10:21:49.776Z,1.00
2023-02-25T10:24:30.992Z,1.00
2023-02-25T10:27:17.666Z,1.00
2023-02-25T10:29:51.338Z,1.00
2023-02-25T10:32:24.690Z,1.00
2023-02-25T10:34:55.593Z,1.00
2023-02-25T10:37:32.564Z,1.00
2023-02-25T10:40:11.050Z,1.00
2023-02-25T10:42:41.310Z,1.00
2023-02-25T10:45:15.192Z,1.00
2023-02-25T10:47:47.634Z,1.00
2023-02-25T10:50:35.698Z,1.00
2023-02-25T10:53:17.300Z,1.00
2023-02-25T10:55:55.066Z,1.00
2023-02-25T10:58:31.587Z,1.00
2023-02-25T11:01:06.319Z,1.00
2023-02-25T11:03:44.478Z,1.00
2023-02-25T11:06:22.740Z,1.00
2023-02-25T11:08:54.798Z,1.00
2023-02-25T11:11:31.843Z,1.00
2023-02-25T11:14:08.586Z,1.00
2023-02-25T11:16:40.782Z,1.00
2023-02-25T11:19:18.161Z,1.00
2023-02-25T11:21:49.463Z,1.00
2023-02-25T11:24:22.096Z,1.00
2023-02-25T11:26:55.168Z,1.00
2023-02-25T11:29:28.605Z,1.00
2023-02-25T11:32:04.593Z,1.00
2023-02-25T11:34:35.075Z,1.00
2023-02-25T11:37:26.581Z,1.00
2023-02-25T11:39:57.746Z,1.00
2023-02-25T11:42:31.377Z,1.00
2023-02-25T11:45:05.942Z,1.00
2023-02-25T11:47:39.766Z,1.00
2023-02-25T11:50:23.900Z,1.00
2023-02-25T11:53:02.001Z,1.00
2023-02-25T11:55:47.122Z,1.00
2023-02-25T11:58:27.525Z,1.00
2023-02-25T12:01:03.309Z,1.00
2023-02-25T12:04:11.893Z,1.00
2023-02-25T12:07:07.252Z,1.00
2023-02-25T12:10:20.692Z,1.00
2023-02-25T12:13:14.438Z,1.00
2023-02-25T12:16:11.645Z,1.00
2023-02-25T12:19:14.522Z,1.00
2023-02-25T12:22:12.707Z,1.00
2023-02-25T12:24:59.435Z,1.00
2023-02-25T12:27:57.098Z,1.00
2023-02-25T12:31:15.400Z,1.00
2023-02-25T12:34:06.184Z,1.00
2023-02-25T12:36:52.074Z,1.00
2023-02-25T12:40:00.187Z,1.00
2023-02-25T12:42:52.089Z,1.00
2023-02-25T12:45:36.634Z,1.00
2023-02-25T12:48:32.918Z,1.00
2023-02-25T12:51:23.654Z,1.00
2023-02-25T12:54:00.915Z,1.00
2023-02-25T12:57:00.965Z,1.00
2023-02-25T12:59:58.032Z,1.00
2023-02-25T13:02:52.698Z,1.00
2023-02-25T13:05:58.326Z,1.00
2023-02-25T13:08:41.861Z,1.00
2023-02-25T13:11:24.438Z,1.00
2023-02-25T13:14:12.786Z,1.00
2023-02-25T13:16:58.462Z,1.00
2023-02-25T13:19:42.214Z,1.00
2023-02-25T13:22:23.793Z,1.00
2023-02-25T13:25:06.529Z,1.00
2023-02-25T13:27:53.926Z,1.00
2023-02-25T13:30:29.306Z,1.00
2023-02-25T13:33:22.036Z,1.00
2023-02-25T13:35:59.354Z,1.00
2023-02-25T13:38:48.412Z,1.00
2023-02-25T13:41:34.112Z,1.00
2023-02-25T13:44:34.499Z,1.00
2023-02-25T13:47:25.477Z,1.00
2023-02-25T13:50:16.923Z,1.00
2023-02-25T13:53:08.231Z,1.00
2023-02-25T13:55:54.813Z,1.00
2023-02-25T13:58:39.094Z,1.00
2023-02-25T14:01:31.463Z,1.00
2023-02-25T14:04:27.213Z,1.00
2023-02-25T14:07:21.184Z,1.00
2023-02-25T14:09:59.982Z,1.00
2023-02-25T14:12:46.665Z,1.00
2023-02-25T14:15:38.267Z,1.00
2023-02-25T14:18:36.886Z,1.00
2023-02-25T14:21:39.799Z,1.00
2023-02-25T14:24:19.410Z,1.00
2023-02-25T14:27:02.340Z,1.00
2023-02-25T14:29:43.381Z,1.00
2023-02-25T14:32:35.962Z,1.00
2023-02-25T14:35:30.932Z,1.00
2023-02-25T14:38:10.169Z,1.00
2023-02-25T14:40:46.593Z,1.00
2023-02-25T14:43:34.147Z,1.00
2023-02-25T14:46:13.421Z,1.00
2023-02-25T14:48:52.059Z,1.00
2023-02-25T14:51:48.522Z,1.00
2023-02-25T14:55:07.152Z,1.00
2023-02-25T14:58:06.214Z,1.00
2023-02-25T15:01:02.171Z,1.00
2023-02-25T15:03:49.014Z,1.00
2023-02-25T15:06:33.813Z,1.00
2023-02-25T15:09:47.139Z,1.00
2023-02-25T15:12:34.948Z,1.00
2023-02-25T15:15:31.084Z,1.00
2023-02-25T15:18:30.411Z,1.00
2023-02-25T15:21:32.624Z,1.00
2023-02-25T15:24:03.002Z,1.00
2023-02-25T15:26:44.742Z,1.00
2023-02-25T15:29:59.645Z,1.00
2023-02-25T15:32:31.404Z,1.00
2023-02-25T15:35:04.954Z,1.00
2023-02-25T15:37:40.132Z,1.00
2023-02-25T15:40:50.964Z,1.00
2023-02-25T15:43:45.847Z,1.00
2023-02-25T15:46:45.837Z,1.00
2023-02-25T15:49:23.951Z,1.00
2023-02-25T15:51:56.358Z,1.00
2023-02-25T15:54:53.935Z,1.00
2023-02-25T15:57:44.868Z,1.00
2023-02-25T16:00:59.759Z,1.00
2023-02-25T16:03:45.123Z,1.70
2023-02-25T16:06:19.021Z,2.00
2023-02-25T16:08:54.407Z,2.00
2023-02-25T16:11:36.583Z,1.00
2023-02-25T16:14:09.553Z,1.10
2023-02-25T16:16:46.675Z,1.00
2023-02-25T16:19:20.379Z,1.00
2023-02-25T16:21:54.506Z,1.00
2023-02-25T16:24:26.192Z,1.00
2023-02-25T16:27:03.192Z,1.00
2023-02-25T16:29:51.078Z,1.00
2023-02-25T16:32:32.694Z,1.00
2023-02-25T16:35:09.675Z,1.00
2023-02-25T16:37:46.440Z,1.00
2023-02-25T16:40:20.120Z,1.00
2023-02-25T16:42:53.854Z,1.00
2023-02-25T16:45:29.439Z,1.00
2023-02-25T16:48:03.846Z,1.00
2023-02-25T16:50:34.939Z,1.00
2023-02-25T16:53:06.649Z,1.00
2023-02-25T16:55:42.743Z,1.00
2023-02-25T16:58:26.137Z,1.00
2023-02-25T17:00:58.088Z,1.00
2023-02-25T17:03:31.013Z,1.00
2023-02-25T17:06:07.759Z,1.00
2023-02-25T17:08:39.724Z,1.00
2023-02-25T17:11:13.431Z,1.00
2023-02-25T17:13:47.936Z,1.00
2023-02-25T17:16:21.375Z,1.00
2023-02-25T17:18:53.555Z,1.00
2023-02-25T17:21:27.425Z,1.00
2023-02-25T17:23:58.500Z,3.00
2023-02-25T17:26:29.080Z,7.30
2023-02-25T17:29:03.549Z,10.00
2023-02-25T17:31:33.705Z,10.90
2023-02-25T17:34:04.998Z,11.10
2023-02-25T17:36:39.237Z,13.00
2023-02-25T17:39:11.088Z,14.10
2023-02-25T17:41:43.895Z,16.20
2023-02-25T17:44:47.740Z,19.40
2023-02-25T17:47:23.920Z,22.50
2023-02-25T17:49:54.359Z,25.10
2023-02-25T17:52:27.030Z,26.70
2023-02-25T17:55:01.458Z,28.50
2023-02-25T17:57:32.289Z,29.60
2023-02-25T18:00:22.042Z,30.70
2023-02-25T18:03:11.533Z,32.30
2023-02-25T18:05:52.443Z,33.20
2023-02-25T18:08:26.235Z,32.80
2023-02-25T18:11:03.089Z,33.70
2023-02-25T18:13:38.830Z,34.80
2023-02-25T18:16:35.446Z,35.00
2023-02-25T18:19:10.751Z,35.00
2023-02-25T18:21:44.459Z,35.10
2023-02-25T18:24:26.107Z,34.80
2023-02-25T18:27:26.932Z,35.30
2023-02-25T18:29:58.350Z,35.10
2023-02-25T18:32:30.818Z,35.00
2023-02-25T18:35:00.614Z,33.40
2023-02-25T18:37:34.414Z,34.10
2023-02-25T18:40:04.297Z,32.80
2023-02-25T18:42:34.052Z,31.90
2023-02-25T18:45:03.769Z,29.90
2023-02-25T18:47:36.120Z,28.90
2023-02-25T18:50:05.946Z,28.10
2023-02-25T18:52:35.776Z,27.10
2023-02-25T18:55:05.671Z,25.70
2023-02-25T18:57:35.599Z,25.40
2023-02-25T19:00:05.832Z,25.60
2023-02-25T19:02:39.686Z,25.70
2023-02-25T19:05:10.026Z,25.90
2023-02-25T19:07:40.068Z,25.20
2023-02-25T19:10:11.755Z,25.20
2023-02-25T19:12:41.523Z,25.90
2023-02-25T19:15:16.786Z,24.70
2023-02-25T19:17:49.580Z,25.00
2023-02-25T19:20:21.747Z,25.40
2023-02-25T19:22:53.926Z,25.50
2023-02-25T19:25:26.576Z,25.10
2023-02-25T19:27:58.252Z,25.80
2023-02-25T19:30:31.263Z,26.10
2023-02-25T19:33:05.090Z,27.20
2023-02-25T19:35:37.074Z,26.80
2023-02-25T19:38:07.009Z,27.40
2023-02-25T19:40:37.695Z,27.60
2023-02-25T19:43:07.870Z,27.50
2023-02-25T19:45:37.617Z,27.80
2023-02-25T19:48:10.766Z,28.50
2023-02-25T19:50:43.299Z,27.50
2023-02-25T19:53:13.056Z,26.50
2023-02-25T19:55:44.988Z,25.70
2023-02-25T19:58:15.329Z,24.20
2023-02-25T20:00:46.431Z,24.00
2023-02-25T20:03:19.322Z,24.20
2023-02-25T20:05:49.073Z,23.60
2023-02-25T20:08:18.869Z,21.30
2023-02-25T20:10:48.709Z,21.10
2023-02-25T20:13:18.542Z,17.40
2023-02-25T20:15:48.312Z,17.40
2023-02-25T20:18:20.724Z,15.10
2023-02-25T20:20:50.470Z,15.10
2023-02-25T20:23:20.250Z,4.70
2023-02-25T20:25:50.333Z,1.00
2023-02-25T20:28:22.726Z,1.00
2023-02-25T20:30:52.682Z,1.00
2023-02-25T20:33:27.832Z,1.00
2023-02-25T20:35:57.886Z,1.00
2023-02-25T20:38:33.684Z,1.00
2023-02-25T20:41:03.687Z,1.00
2023-02-25T20:43:33.683Z,1.00
2023-02-25T20:46:03.756Z,1.00
2023-02-25T20:48:36.394Z,1.00
2023-02-25T20:51:06.647Z,1.00
2023-02-25T20:53:37.009Z,1.00
2023-02-25T20:56:07.284Z,1.00
2023-02-25T20:58:37.007Z,1.00
2023-02-25T21:01:07.662Z,1.00
2023-02-25T21:03:40.173Z,1.00
2023-02-25T21:06:11.155Z,1.00
2023-02-25T21:08:41.660Z,1.00
2023-02-25T21:11:11.651Z,1.00
2023-02-25T21:13:41.465Z,1.00
2023-02-25T21:16:11.329Z,1.00
2023-02-25T21:18:45.089Z,1.00
2023-02-25T21:21:16.765Z,1.00
2023-02-25T21:23:47.007Z,1.00
2023-02-25T21:26:16.814Z,1.00
2023-02-25T21:28:46.728Z,1.00
2023-02-25T21:31:18.436Z,1.00
2023-02-25T21:33:51.096Z,1.00
2023-02-25T21:36:21.119Z,1.00
2023-02-25T21:38:50.965Z,1.00
2023-02-25T21:41:22.912Z,1.00
2023-02-25T21:43:55.748Z,1.00
2023-02-25T21:46:25.911Z,1.00
2023-02-25T21:48:59.521Z,1.00
2023-02-25T21:51:31.096Z,1.00
2023-02-25T21:54:03.123Z,1.00
2023-02-25T21:56:33.359Z,1.00
2023-02-25T21:59:05.327Z,1.00
2023-02-25T22:01:36.791Z,1.00
2023-02-25T22:04:10.067Z,1.00
2023-02-25T22:06:40.354Z,1.00
2023-02-25T22:09:10.162Z,1.00
2023-02-25T22:11:41.279Z,1.00
2023-02-25T22:14:11.938Z,1.00
2023-02-25T22:16:42.407Z,1.00
2023-02-25T22:19:14.779Z,1.00
2023-02-25T22:21:44.551Z,1.00
2023-02-25T22:24:14.378Z,1.00
2023-02-25T22:26:45.735Z,1.00
2023-02-25T22:29:15.501Z,1.00
2023-02-25T22:31:45.509Z,1.00
2023-02-25T22:34:17.995Z,1.00
2023-02-25T22:36:47.967Z,1.00
2023-02-25T22:39:17.747Z,1.00
2023-02-25T22:41:47.623Z,1.00
2023-02-25T22:44:17.411Z,1.00
2023-02-25T22:46:47.312Z,1.00
2023-02-25T22:49:19.678Z,1.00
2023-02-25T22:51:50.464Z,1.00
2023-02-25T22:54:21.924Z,1.00
2023-02-25T22:56:52.387Z,1.00
2023-02-25T22:59:22.607Z,1.00
2023-02-25T23:01:52.413Z,1.00
2023-02-25T23:04:24.811Z,1.00
2023-02-25T23:06:55.755Z,1.00
2023-02-25T23:09:25.714Z,1.00
2023-02-25T23:11:55.713Z,1.00
2023-02-25T23:14:25.436Z,1.00
2023-02-25T23:16:55.170Z,1.00
2023-02-25T23:19:28.190Z,1.00
2023-02-25T23:21:57.972Z,1.00
2023-02-25T23:24:27.714Z,1.00
2023-02-25T23:27:01.297Z,1.00
2023-02-25T23:29:31.205Z,1.00
2023-02-25T23:32:01.474Z,1.00
2023-02-25T23:34:33.947Z,1.00
2023-02-25T23:37:03.741Z,1.00
2023-02-25T23:39:34.399Z,1.00
2023-02-25T23:42:04.226Z,1.00
2023-02-25T23:44:34.126Z,1.00
2023-02-25T23:47:04.019Z,1.00
2023-02-25T23:49:36.371Z,1.00
2023-02-25T23:52:06.220Z,1.00
2023-02-25T23:54:35.985Z,1.00
2023-02-25T23:57:05.910Z,1.00
2023-02-25T23:59:35.859Z,1.00
